sensor_id;sensor_type;location;lat;lon;timestamp;P1;durP1;ratioP1;P2;durP2;ratioP2
25263;SDS011;13211;51.796;5.808;2023-02-15T00:05:06;42.80;;;20.98;;
25263;SDS011;13211;51.796;5.808;2023-02-15T00:07:34;55.85;;;23.00;;
25263;SDS011;13211;51.796;5.808;2023-02-15T00:10:02;53.70;;;23.65;;
25263;SDS011;13211;51.796;5.808;2023-02-15T00:12:30;51.42;;;24.15;;
25263;SDS011;13211;51.796;5.808;2023-02-15T00:14:58;50.83;;;23.55;;
25263;SDS011;13211;51.796;5.808;2023-02-15T00:17:27;51.85;;;24.13;;
25263;SDS011;13211;51.796;5.808;2023-02-15T00:19:54;57.35;;;24.98;;
25263;SDS011;13211;51.796;5.808;2023-02-15T00:22:25;50.88;;;23.40;;
25263;SDS011;13211;51.796;5.808;2023-02-15T00:24:53;52.20;;;24.50;;
25263;SDS011;13211;51.796;5.808;2023-02-15T00:27:20;53.42;;;24.80;;
25263;SDS011;13211;51.796;5.808;2023-02-15T00:29:52;59.40;;;25.35;;
25263;SDS011;13211;51.796;5.808;2023-02-15T00:32:20;57.38;;;25.55;;
25263;SDS011;13211;51.796;5.808;2023-02-15T00:34:47;51.67;;;24.27;;
25263;SDS011;13211;51.796;5.808;2023-02-15T00:37:15;49.58;;;23.55;;
25263;SDS011;13211;51.796;5.808;2023-02-15T00:39:46;51.72;;;23.63;;
25263;SDS011;13211;51.796;5.808;2023-02-15T00:42:14;49.78;;;23.08;;
25263;SDS011;13211;51.796;5.808;2023-02-15T00:44:42;52.60;;;24.45;;
25263;SDS011;13211;51.796;5.808;2023-02-15T00:47:11;55.63;;;23.48;;
25263;SDS011;13211;51.796;5.808;2023-02-15T00:49:40;51.65;;;22.80;;
25263;SDS011;13211;51.796;5.808;2023-02-15T00:52:09;47.30;;;23.52;;
25263;SDS011;13211;51.796;5.808;2023-02-15T00:54:37;45.10;;;21.40;;
25263;SDS011;13211;51.796;5.808;2023-02-15T00:57:06;41.97;;;20.73;;
25263;SDS011;13211;51.796;5.808;2023-02-15T00:59:33;44.47;;;21.30;;
25263;SDS011;13211;51.796;5.808;2023-02-15T01:03:24;43.35;;;19.92;;
25263;SDS011;13211;51.796;5.808;2023-02-15T01:05:53;45.97;;;19.80;;
25263;SDS011;13211;51.796;5.808;2023-02-15T01:08:20;45.90;;;20.85;;
25263;SDS011;13211;51.796;5.808;2023-02-15T01:10:48;51.40;;;21.35;;
25263;SDS011;13211;51.796;5.808;2023-02-15T01:13:16;52.47;;;22.95;;
25263;SDS011;13211;51.796;5.808;2023-02-15T01:15:45;42.63;;;20.73;;
25263;SDS011;13211;51.796;5.808;2023-02-15T01:18:15;47.00;;;20.70;;
25263;SDS011;13211;51.796;5.808;2023-02-15T01:20:45;42.85;;;21.13;;
25263;SDS011;13211;51.796;5.808;2023-02-15T01:23:14;45.53;;;21.40;;
25263;SDS011;13211;51.796;5.808;2023-02-15T01:28:14;43.65;;;20.10;;
25263;SDS011;13211;51.796;5.808;2023-02-15T01:30:41;44.88;;;20.42;;
25263;SDS011;13211;51.796;5.808;2023-02-15T01:33:11;41.72;;;20.00;;
25263;SDS011;13211;51.796;5.808;2023-02-15T01:35:45;42.42;;;20.85;;
25263;SDS011;13211;51.796;5.808;2023-02-15T01:38:15;42.20;;;20.25;;
25263;SDS011;13211;51.796;5.808;2023-02-15T01:40:43;41.03;;;19.52;;
25263;SDS011;13211;51.796;5.808;2023-02-15T01:43:11;43.20;;;20.05;;
25263;SDS011;13211;51.796;5.808;2023-02-15T01:45:42;51.08;;;23.25;;
25263;SDS011;13211;51.796;5.808;2023-02-15T01:50:43;52.97;;;22.15;;
25263;SDS011;13211;51.796;5.808;2023-02-15T01:53:25;48.08;;;21.33;;
25263;SDS011;13211;51.796;5.808;2023-02-15T01:56:11;51.85;;;22.48;;
25263;SDS011;13211;51.796;5.808;2023-02-15T01:58:44;48.28;;;21.65;;
25263;SDS011;13211;51.796;5.808;2023-02-15T02:01:15;53.65;;;23.58;;
25263;SDS011;13211;51.796;5.808;2023-02-15T02:06:30;50.53;;;23.08;;
25263;SDS011;13211;51.796;5.808;2023-02-15T02:09:00;49.08;;;21.65;;
25263;SDS011;13211;51.796;5.808;2023-02-15T02:11:30;52.25;;;23.35;;
25263;SDS011;13211;51.796;5.808;2023-02-15T02:13:58;47.25;;;21.77;;
25263;SDS011;13211;51.796;5.808;2023-02-15T02:16:28;50.83;;;23.10;;
25263;SDS011;13211;51.796;5.808;2023-02-15T02:22:01;53.60;;;21.65;;
25263;SDS011;13211;51.796;5.808;2023-02-15T02:24:41;45.35;;;20.95;;
25263;SDS011;13211;51.796;5.808;2023-02-15T02:35:38;47.10;;;22.45;;
25263;SDS011;13211;51.796;5.808;2023-02-15T02:41:00;51.17;;;22.38;;
25263;SDS011;13211;51.796;5.808;2023-02-15T02:43:33;48.42;;;21.85;;
25263;SDS011;13211;51.796;5.808;2023-02-15T02:46:08;47.85;;;22.52;;
25263;SDS011;13211;51.796;5.808;2023-02-15T02:48:38;50.75;;;21.17;;
25263;SDS011;13211;51.796;5.808;2023-02-15T02:51:06;46.17;;;22.58;;
25263;SDS011;13211;51.796;5.808;2023-02-15T02:53:33;58.53;;;22.88;;
25263;SDS011;13211;51.796;5.808;2023-02-15T02:58:38;49.20;;;22.70;;
25263;SDS011;13211;51.796;5.808;2023-02-15T03:03:52;50.35;;;23.23;;
25263;SDS011;13211;51.796;5.808;2023-02-15T03:06:27;55.40;;;23.50;;
25263;SDS011;13211;51.796;5.808;2023-02-15T03:08:58;46.97;;;23.35;;
25263;SDS011;13211;51.796;5.808;2023-02-15T03:11:28;54.38;;;24.42;;
25263;SDS011;13211;51.796;5.808;2023-02-15T03:13:57;48.85;;;22.48;;
25263;SDS011;13211;51.796;5.808;2023-02-15T03:16:25;47.85;;;23.35;;
25263;SDS011;13211;51.796;5.808;2023-02-15T03:19:16;47.65;;;22.42;;
25263;SDS011;13211;51.796;5.808;2023-02-15T03:21:54;55.20;;;23.60;;
25263;SDS011;13211;51.796;5.808;2023-02-15T03:24:37;45.38;;;22.73;;
25263;SDS011;13211;51.796;5.808;2023-02-15T03:27:06;54.05;;;23.25;;
25263;SDS011;13211;51.796;5.808;2023-02-15T03:29:36;48.55;;;22.80;;
25263;SDS011;13211;51.796;5.808;2023-02-15T03:32:05;52.17;;;23.42;;
25263;SDS011;13211;51.796;5.808;2023-02-15T03:34:34;52.05;;;23.60;;
25263;SDS011;13211;51.796;5.808;2023-02-15T03:42:31;50.08;;;22.95;;
25263;SDS011;13211;51.796;5.808;2023-02-15T03:47:33;51.03;;;23.38;;
25263;SDS011;13211;51.796;5.808;2023-02-15T03:50:04;50.78;;;23.15;;
25263;SDS011;13211;51.796;5.808;2023-02-15T03:52:54;54.80;;;23.38;;
25263;SDS011;13211;51.796;5.808;2023-02-15T03:55:23;56.78;;;23.73;;
25263;SDS011;13211;51.796;5.808;2023-02-15T03:57:51;55.00;;;24.55;;
25263;SDS011;13211;51.796;5.808;2023-02-15T04:00:41;53.35;;;23.95;;
25263;SDS011;13211;51.796;5.808;2023-02-15T04:06:03;56.63;;;24.30;;
25263;SDS011;13211;51.796;5.808;2023-02-15T04:08:31;55.67;;;25.50;;
25263;SDS011;13211;51.796;5.808;2023-02-15T04:11:25;56.40;;;24.15;;
25263;SDS011;13211;51.796;5.808;2023-02-15T04:13:52;47.58;;;22.90;;
25263;SDS011;13211;51.796;5.808;2023-02-15T04:16:23;52.75;;;23.52;;
25263;SDS011;13211;51.796;5.808;2023-02-15T04:18:51;50.85;;;23.52;;
25263;SDS011;13211;51.796;5.808;2023-02-15T04:21:42;56.95;;;24.27;;
25263;SDS011;13211;51.796;5.808;2023-02-15T04:24:29;46.47;;;21.77;;
25263;SDS011;13211;51.796;5.808;2023-02-15T04:27:16;49.55;;;22.33;;
25263;SDS011;13211;51.796;5.808;2023-02-15T04:29:48;56.38;;;24.70;;
25263;SDS011;13211;51.796;5.808;2023-02-15T04:32:16;55.88;;;23.60;;
25263;SDS011;13211;51.796;5.808;2023-02-15T04:34:44;50.65;;;21.95;;
25263;SDS011;13211;51.796;5.808;2023-02-15T04:37:12;50.80;;;23.20;;
25263;SDS011;13211;51.796;5.808;2023-02-15T04:39:43;52.47;;;23.42;;
25263;SDS011;13211;51.796;5.808;2023-02-15T04:42:11;52.33;;;24.10;;
25263;SDS011;13211;51.796;5.808;2023-02-15T04:44:41;53.28;;;24.20;;
25263;SDS011;13211;51.796;5.808;2023-02-15T04:47:11;52.63;;;23.13;;
25263;SDS011;13211;51.796;5.808;2023-02-15T04:49:39;52.72;;;23.63;;
25263;SDS011;13211;51.796;5.808;2023-02-15T04:52:07;55.15;;;24.70;;
25263;SDS011;13211;51.796;5.808;2023-02-15T04:54:35;48.90;;;23.02;;
25263;SDS011;13211;51.796;5.808;2023-02-15T04:57:04;51.30;;;23.48;;
25263;SDS011;13211;51.796;5.808;2023-02-15T04:59:33;56.70;;;25.13;;
25263;SDS011;13211;51.796;5.808;2023-02-15T05:02:00;56.58;;;24.35;;
25263;SDS011;13211;51.796;5.808;2023-02-15T05:04:28;50.60;;;23.83;;
25263;SDS011;13211;51.796;5.808;2023-02-15T05:06:56;53.28;;;22.98;;
25263;SDS011;13211;51.796;5.808;2023-02-15T05:09:23;55.55;;;24.83;;
25263;SDS011;13211;51.796;5.808;2023-02-15T05:11:51;52.50;;;23.65;;
25263;SDS011;13211;51.796;5.808;2023-02-15T05:14:19;55.90;;;24.65;;
25263;SDS011;13211;51.796;5.808;2023-02-15T05:16:46;53.53;;;24.33;;
25263;SDS011;13211;51.796;5.808;2023-02-15T05:19:14;56.47;;;24.10;;
25263;SDS011;13211;51.796;5.808;2023-02-15T05:21:42;57.78;;;23.70;;
25263;SDS011;13211;51.796;5.808;2023-02-15T05:24:12;57.72;;;25.08;;
25263;SDS011;13211;51.796;5.808;2023-02-15T05:26:59;57.42;;;23.63;;
25263;SDS011;13211;51.796;5.808;2023-02-15T05:29:45;56.80;;;25.38;;
25263;SDS011;13211;51.796;5.808;2023-02-15T05:32:15;53.45;;;25.08;;
25263;SDS011;13211;51.796;5.808;2023-02-15T05:34:42;54.00;;;24.40;;
25263;SDS011;13211;51.796;5.808;2023-02-15T05:37:11;53.47;;;24.52;;
25263;SDS011;13211;51.796;5.808;2023-02-15T05:39:39;60.58;;;25.60;;
25263;SDS011;13211;51.796;5.808;2023-02-15T05:42:07;53.85;;;25.10;;
25263;SDS011;13211;51.796;5.808;2023-02-15T05:44:34;58.15;;;26.45;;
25263;SDS011;13211;51.796;5.808;2023-02-15T05:47:02;58.47;;;25.45;;
25263;SDS011;13211;51.796;5.808;2023-02-15T05:49:30;57.10;;;26.17;;
25263;SDS011;13211;51.796;5.808;2023-02-15T05:51:58;58.17;;;25.33;;
25263;SDS011;13211;51.796;5.808;2023-02-15T05:54:26;57.42;;;24.65;;
25263;SDS011;13211;51.796;5.808;2023-02-15T05:56:54;59.00;;;25.77;;
25263;SDS011;13211;51.796;5.808;2023-02-15T05:59:21;58.80;;;26.23;;
25263;SDS011;13211;51.796;5.808;2023-02-15T06:01:49;57.38;;;25.13;;
25263;SDS011;13211;51.796;5.808;2023-02-15T06:04:17;58.60;;;25.60;;
25263;SDS011;13211;51.796;5.808;2023-02-15T06:06:45;56.35;;;24.90;;
25263;SDS011;13211;51.796;5.808;2023-02-15T06:09:13;65.45;;;25.38;;
25263;SDS011;13211;51.796;5.808;2023-02-15T06:11:44;59.10;;;26.08;;
25263;SDS011;13211;51.796;5.808;2023-02-15T06:14:12;57.33;;;25.75;;
25263;SDS011;13211;51.796;5.808;2023-02-15T06:16:44;60.38;;;26.02;;
25263;SDS011;13211;51.796;5.808;2023-02-15T06:19:15;57.28;;;26.73;;
25263;SDS011;13211;51.796;5.808;2023-02-15T06:26:41;60.88;;;25.17;;
25263;SDS011;13211;51.796;5.808;2023-02-15T06:29:09;54.85;;;24.77;;
25263;SDS011;13211;51.796;5.808;2023-02-15T06:31:37;61.58;;;25.33;;
25263;SDS011;13211;51.796;5.808;2023-02-15T06:34:05;55.85;;;25.48;;
25263;SDS011;13211;51.796;5.808;2023-02-15T06:36:34;69.53;;;28.63;;
25263;SDS011;13211;51.796;5.808;2023-02-15T06:39:02;64.25;;;26.65;;
25263;SDS011;13211;51.796;5.808;2023-02-15T06:41:30;63.60;;;26.45;;
25263;SDS011;13211;51.796;5.808;2023-02-15T06:43:57;65.40;;;26.42;;
25263;SDS011;13211;51.796;5.808;2023-02-15T06:46:26;69.43;;;28.15;;
25263;SDS011;13211;51.796;5.808;2023-02-15T06:48:53;70.65;;;27.90;;
25263;SDS011;13211;51.796;5.808;2023-02-15T06:51:22;64.85;;;27.73;;
25263;SDS011;13211;51.796;5.808;2023-02-15T06:53:49;65.95;;;26.98;;
25263;SDS011;13211;51.796;5.808;2023-02-15T06:56:17;67.53;;;28.80;;
25263;SDS011;13211;51.796;5.808;2023-02-15T06:58:44;69.30;;;28.38;;
25263;SDS011;13211;51.796;5.808;2023-02-15T07:01:12;74.28;;;28.48;;
25263;SDS011;13211;51.796;5.808;2023-02-15T07:03:41;60.47;;;26.90;;
25263;SDS011;13211;51.796;5.808;2023-02-15T07:06:11;66.28;;;27.60;;
25263;SDS011;13211;51.796;5.808;2023-02-15T07:08:39;66.13;;;28.05;;
25263;SDS011;13211;51.796;5.808;2023-02-15T07:11:07;69.18;;;29.55;;
25263;SDS011;13211;51.796;5.808;2023-02-15T07:13:53;64.53;;;27.42;;
25263;SDS011;13211;51.796;5.808;2023-02-15T07:16:21;61.05;;;27.17;;
25263;SDS011;13211;51.796;5.808;2023-02-15T07:18:48;63.58;;;26.77;;
25263;SDS011;13211;51.796;5.808;2023-02-15T07:21:16;66.47;;;28.25;;
25263;SDS011;13211;51.796;5.808;2023-02-15T07:23:44;70.22;;;28.83;;
25263;SDS011;13211;51.796;5.808;2023-02-15T07:26:11;67.18;;;27.77;;
25263;SDS011;13211;51.796;5.808;2023-02-15T07:28:40;65.70;;;28.75;;
25263;SDS011;13211;51.796;5.808;2023-02-15T07:31:09;64.60;;;28.83;;
25263;SDS011;13211;51.796;5.808;2023-02-15T07:33:37;77.10;;;29.52;;
25263;SDS011;13211;51.796;5.808;2023-02-15T07:36:05;66.75;;;28.50;;
25263;SDS011;13211;51.796;5.808;2023-02-15T07:38:34;70.40;;;28.73;;
25263;SDS011;13211;51.796;5.808;2023-02-15T07:41:09;73.85;;;29.85;;
25263;SDS011;13211;51.796;5.808;2023-02-15T07:43:39;72.22;;;30.73;;
25263;SDS011;13211;51.796;5.808;2023-02-15T07:46:09;75.80;;;31.02;;
25263;SDS011;13211;51.796;5.808;2023-02-15T07:48:40;76.95;;;31.13;;
25263;SDS011;13211;51.796;5.808;2023-02-15T07:51:10;73.32;;;31.33;;
25263;SDS011;13211;51.796;5.808;2023-02-15T07:53:39;78.10;;;32.60;;
25263;SDS011;13211;51.796;5.808;2023-02-15T07:56:09;76.45;;;33.33;;
25263;SDS011;13211;51.796;5.808;2023-02-15T07:58:39;74.15;;;30.63;;
25263;SDS011;13211;51.796;5.808;2023-02-15T08:01:24;72.97;;;30.60;;
25263;SDS011;13211;51.796;5.808;2023-02-15T08:03:53;86.75;;;31.70;;
25263;SDS011;13211;51.796;5.808;2023-02-15T08:06:22;71.60;;;30.15;;
25263;SDS011;13211;51.796;5.808;2023-02-15T08:08:50;84.87;;;32.83;;
25263;SDS011;13211;51.796;5.808;2023-02-15T08:11:22;80.22;;;32.63;;
25263;SDS011;13211;51.796;5.808;2023-02-15T08:14:04;77.35;;;32.28;;
25263;SDS011;13211;51.796;5.808;2023-02-15T08:16:38;77.70;;;32.83;;
25263;SDS011;13211;51.796;5.808;2023-02-15T08:19:11;80.03;;;33.03;;
25263;SDS011;13211;51.796;5.808;2023-02-15T08:21:45;80.78;;;34.17;;
25263;SDS011;13211;51.796;5.808;2023-02-15T08:24:14;81.93;;;33.97;;
25263;SDS011;13211;51.796;5.808;2023-02-15T08:26:42;78.60;;;33.88;;
25263;SDS011;13211;51.796;5.808;2023-02-15T08:29:15;77.15;;;32.95;;
25263;SDS011;13211;51.796;5.808;2023-02-15T08:31:45;77.70;;;33.70;;
25263;SDS011;13211;51.796;5.808;2023-02-15T08:34:15;86.55;;;33.78;;
25263;SDS011;13211;51.796;5.808;2023-02-15T08:36:48;83.80;;;35.55;;
25263;SDS011;13211;51.796;5.808;2023-02-15T08:39:16;77.57;;;34.67;;
25263;SDS011;13211;51.796;5.808;2023-02-15T08:41:47;80.45;;;34.22;;
25263;SDS011;13211;51.796;5.808;2023-02-15T08:44:16;85.18;;;34.72;;
25263;SDS011;13211;51.796;5.808;2023-02-15T08:46:45;80.35;;;35.88;;
25263;SDS011;13211;51.796;5.808;2023-02-15T08:49:18;93.80;;;36.58;;
25263;SDS011;13211;51.796;5.808;2023-02-15T08:51:46;89.13;;;36.80;;
25263;SDS011;13211;51.796;5.808;2023-02-15T08:54:17;88.45;;;37.20;;
25263;SDS011;13211;51.796;5.808;2023-02-15T08:56:45;85.35;;;36.03;;
25263;SDS011;13211;51.796;5.808;2023-02-15T08:59:15;89.68;;;36.15;;
25263;SDS011;13211;51.796;5.808;2023-02-15T09:01:45;78.90;;;35.63;;
25263;SDS011;13211;51.796;5.808;2023-02-15T09:04:14;81.40;;;35.50;;
25263;SDS011;13211;51.796;5.808;2023-02-15T09:06:43;86.60;;;36.92;;
25263;SDS011;13211;51.796;5.808;2023-02-15T09:09:14;78.07;;;33.40;;
25263;SDS011;13211;51.796;5.808;2023-02-15T09:11:45;85.03;;;35.63;;
25263;SDS011;13211;51.796;5.808;2023-02-15T09:14:19;85.95;;;36.20;;
25263;SDS011;13211;51.796;5.808;2023-02-15T09:16:47;77.90;;;34.08;;
25263;SDS011;13211;51.796;5.808;2023-02-15T09:19:18;79.88;;;35.95;;
25263;SDS011;13211;51.796;5.808;2023-02-15T09:21:47;80.72;;;34.67;;
25263;SDS011;13211;51.796;5.808;2023-02-15T09:24:16;80.40;;;34.15;;
25263;SDS011;13211;51.796;5.808;2023-02-15T09:26:45;74.80;;;33.65;;
25263;SDS011;13211;51.796;5.808;2023-02-15T09:31:46;74.60;;;32.30;;
25263;SDS011;13211;51.796;5.808;2023-02-15T09:34:16;71.78;;;31.92;;
25263;SDS011;13211;51.796;5.808;2023-02-15T09:36:44;72.80;;;33.22;;
25263;SDS011;13211;51.796;5.808;2023-02-15T09:39:23;68.43;;;33.08;;
25263;SDS011;13211;51.796;5.808;2023-02-15T09:52:05;64.30;;;30.75;;
25263;SDS011;13211;51.796;5.808;2023-02-15T09:57:18;70.97;;;31.95;;
25263;SDS011;13211;51.796;5.808;2023-02-15T09:59:55;62.15;;;30.98;;
25263;SDS011;13211;51.796;5.808;2023-02-15T10:20:55;55.08;;;27.08;;
25263;SDS011;13211;51.796;5.808;2023-02-15T10:23:37;65.90;;;28.08;;
25263;SDS011;13211;51.796;5.808;2023-02-15T10:33:39;62.20;;;28.75;;
25263;SDS011;13211;51.796;5.808;2023-02-15T10:36:14;61.97;;;28.92;;
25263;SDS011;13211;51.796;5.808;2023-02-15T10:38:54;57.38;;;28.00;;
25263;SDS011;13211;51.796;5.808;2023-02-15T10:49:11;57.80;;;28.70;;
25263;SDS011;13211;51.796;5.808;2023-02-15T10:52:09;58.15;;;28.02;;
25263;SDS011;13211;51.796;5.808;2023-02-15T10:57:10;64.57;;;29.05;;
25263;SDS011;13211;51.796;5.808;2023-02-15T10:59:58;57.38;;;29.08;;
25263;SDS011;13211;51.796;5.808;2023-02-15T11:03:32;58.42;;;27.98;;
25263;SDS011;13211;51.796;5.808;2023-02-15T11:07:54;60.22;;;28.88;;
25263;SDS011;13211;51.796;5.808;2023-02-15T11:10:37;51.30;;;28.40;;
25263;SDS011;13211;51.796;5.808;2023-02-15T11:13:25;55.50;;;29.70;;
25263;SDS011;13211;51.796;5.808;2023-02-15T11:15:57;63.17;;;30.27;;
25263;SDS011;13211;51.796;5.808;2023-02-15T11:23:44;57.72;;;29.15;;
25263;SDS011;13211;51.796;5.808;2023-02-15T11:28:57;55.92;;;29.45;;
25263;SDS011;13211;51.796;5.808;2023-02-15T11:31:27;55.40;;;28.42;;
25263;SDS011;13211;51.796;5.808;2023-02-15T11:33:58;55.33;;;26.90;;
25263;SDS011;13211;51.796;5.808;2023-02-15T11:36:31;55.30;;;28.00;;
25263;SDS011;13211;51.796;5.808;2023-02-15T11:39:09;57.05;;;27.55;;
25263;SDS011;13211;51.796;5.808;2023-02-15T11:41:38;58.90;;;27.83;;
25263;SDS011;13211;51.796;5.808;2023-02-15T11:46:39;58.33;;;28.63;;
25263;SDS011;13211;51.796;5.808;2023-02-15T11:49:12;54.65;;;27.98;;
25263;SDS011;13211;51.796;5.808;2023-02-15T11:51:49;54.70;;;27.30;;
25263;SDS011;13211;51.796;5.808;2023-02-15T11:54:18;53.40;;;28.83;;
25263;SDS011;13211;51.796;5.808;2023-02-15T11:56:47;53.47;;;28.85;;
25263;SDS011;13211;51.796;5.808;2023-02-15T11:59:18;52.65;;;27.08;;
25263;SDS011;13211;51.796;5.808;2023-02-15T12:01:49;53.15;;;27.40;;
25263;SDS011;13211;51.796;5.808;2023-02-15T12:06:46;57.85;;;28.10;;
25263;SDS011;13211;51.796;5.808;2023-02-15T12:11:53;49.45;;;26.67;;
25263;SDS011;13211;51.796;5.808;2023-02-15T12:14:21;54.90;;;28.25;;
25263;SDS011;13211;51.796;5.808;2023-02-15T12:16:50;53.25;;;27.73;;
25263;SDS011;13211;51.796;5.808;2023-02-15T12:21:48;56.40;;;27.38;;
25263;SDS011;13211;51.796;5.808;2023-02-15T12:27:21;55.33;;;27.50;;
25263;SDS011;13211;51.796;5.808;2023-02-15T12:30:01;51.25;;;26.85;;
25263;SDS011;13211;51.796;5.808;2023-02-15T12:32:36;54.40;;;27.88;;
25263;SDS011;13211;51.796;5.808;2023-02-15T12:35:09;54.35;;;27.08;;
25263;SDS011;13211;51.796;5.808;2023-02-15T12:37:55;54.53;;;27.53;;
25263;SDS011;13211;51.796;5.808;2023-02-15T12:40:24;54.50;;;26.92;;
25263;SDS011;13211;51.796;5.808;2023-02-15T12:42:57;54.80;;;28.10;;
25263;SDS011;13211;51.796;5.808;2023-02-15T12:45:29;54.90;;;27.75;;
25263;SDS011;13211;51.796;5.808;2023-02-15T12:48:08;55.83;;;28.70;;
25263;SDS011;13211;51.796;5.808;2023-02-15T12:50:37;56.90;;;27.02;;
25263;SDS011;13211;51.796;5.808;2023-02-15T12:53:47;58.20;;;28.45;;
25263;SDS011;13211;51.796;5.808;2023-02-15T12:55:56;56.58;;;26.42;;
25263;SDS011;13211;51.796;5.808;2023-02-15T12:58:25;57.85;;;27.63;;
25263;SDS011;13211;51.796;5.808;2023-02-15T13:03:22;57.15;;;28.02;;
25263;SDS011;13211;51.796;5.808;2023-02-15T13:05:51;56.17;;;27.38;;
25263;SDS011;13211;51.796;5.808;2023-02-15T13:08:21;52.05;;;27.08;;
25263;SDS011;13211;51.796;5.808;2023-02-15T13:13:22;59.90;;;26.60;;
25263;SDS011;13211;51.796;5.808;2023-02-15T13:15:52;51.67;;;27.80;;
25263;SDS011;13211;51.796;5.808;2023-02-15T13:20:55;54.92;;;26.95;;
25263;SDS011;13211;51.796;5.808;2023-02-15T13:23:27;54.17;;;26.55;;
25263;SDS011;13211;51.796;5.808;2023-02-15T13:25:56;56.60;;;27.38;;
25263;SDS011;13211;51.796;5.808;2023-02-15T13:28:27;56.20;;;27.23;;
25263;SDS011;13211;51.796;5.808;2023-02-15T13:30:58;51.85;;;26.42;;
25263;SDS011;13211;51.796;5.808;2023-02-15T13:33:30;53.03;;;26.60;;
25263;SDS011;13211;51.796;5.808;2023-02-15T13:36:08;59.15;;;26.25;;
25263;SDS011;13211;51.796;5.808;2023-02-15T13:38:45;52.47;;;26.85;;
25263;SDS011;13211;51.796;5.808;2023-02-15T13:41:17;56.67;;;26.35;;
25263;SDS011;13211;51.796;5.808;2023-02-15T13:56:23;54.13;;;26.42;;
25263;SDS011;13211;51.796;5.808;2023-02-15T13:58:58;55.55;;;26.88;;
25263;SDS011;13211;51.796;5.808;2023-02-15T14:14:26;56.50;;;27.52;;
25263;SDS011;13211;51.796;5.808;2023-02-15T14:17:06;57.22;;;28.55;;
25263;SDS011;13211;51.796;5.808;2023-02-15T14:22:25;54.10;;;25.77;;
25263;SDS011;13211;51.796;5.808;2023-02-15T14:25:05;57.20;;;28.20;;
25263;SDS011;13211;51.796;5.808;2023-02-15T14:30:36;57.80;;;27.25;;
25263;SDS011;13211;51.796;5.808;2023-02-15T14:33:10;53.22;;;27.17;;
25263;SDS011;13211;51.796;5.808;2023-02-15T14:35:44;60.55;;;27.08;;
25263;SDS011;13211;51.796;5.808;2023-02-15T14:48:53;57.33;;;27.63;;
25263;SDS011;13211;51.796;5.808;2023-02-15T14:56:45;59.65;;;27.30;;
25263;SDS011;13211;51.796;5.808;2023-02-15T14:59:13;58.63;;;27.45;;
25263;SDS011;13211;51.796;5.808;2023-02-15T15:01:51;59.97;;;26.58;;
25263;SDS011;13211;51.796;5.808;2023-02-15T15:04:23;56.58;;;27.25;;
25263;SDS011;13211;51.796;5.808;2023-02-15T15:07:00;56.28;;;27.05;;
25263;SDS011;13211;51.796;5.808;2023-02-15T15:09:29;57.40;;;27.35;;
25263;SDS011;13211;51.796;5.808;2023-02-15T15:14:49;63.13;;;27.05;;
25263;SDS011;13211;51.796;5.808;2023-02-15T15:22:41;56.83;;;26.48;;
25263;SDS011;13211;51.796;5.808;2023-02-15T15:28:00;61.78;;;27.30;;
25263;SDS011;13211;51.796;5.808;2023-02-15T15:43:48;59.25;;;27.60;;
25263;SDS011;13211;51.796;5.808;2023-02-15T15:49:15;56.90;;;27.00;;
25263;SDS011;13211;51.796;5.808;2023-02-15T15:51:44;54.88;;;26.17;;
25263;SDS011;13211;51.796;5.808;2023-02-15T15:54:16;55.83;;;26.45;;
25263;SDS011;13211;51.796;5.808;2023-02-15T15:56:55;58.33;;;26.88;;
25263;SDS011;13211;51.796;5.808;2023-02-15T15:59:25;50.42;;;25.95;;
25263;SDS011;13211;51.796;5.808;2023-02-15T16:01:53;55.35;;;27.67;;
25263;SDS011;13211;51.796;5.808;2023-02-15T16:04:26;57.53;;;28.60;;
25263;SDS011;13211;51.796;5.808;2023-02-15T16:06:57;62.63;;;28.23;;
25263;SDS011;13211;51.796;5.808;2023-02-15T16:09:26;62.88;;;28.30;;
25263;SDS011;13211;51.796;5.808;2023-02-15T16:11:56;65.73;;;29.40;;
25263;SDS011;13211;51.796;5.808;2023-02-15T16:14:32;63.97;;;29.25;;
25263;SDS011;13211;51.796;5.808;2023-02-15T16:17:06;59.00;;;28.33;;
25263;SDS011;13211;51.796;5.808;2023-02-15T16:19:38;58.53;;;28.10;;
25263;SDS011;13211;51.796;5.808;2023-02-15T16:22:09;68.45;;;28.92;;
25263;SDS011;13211;51.796;5.808;2023-02-15T16:27:30;58.80;;;29.23;;
25263;SDS011;13211;51.796;5.808;2023-02-15T16:32:48;52.75;;;27.33;;
25263;SDS011;13211;51.796;5.808;2023-02-15T16:35:16;58.92;;;27.95;;
25263;SDS011;13211;51.796;5.808;2023-02-15T16:37:44;61.85;;;28.85;;
25263;SDS011;13211;51.796;5.808;2023-02-15T16:42:52;65.45;;;28.95;;
25263;SDS011;13211;51.796;5.808;2023-02-15T16:45:22;68.60;;;30.13;;
25263;SDS011;13211;51.796;5.808;2023-02-15T16:47:54;61.13;;;30.05;;
25263;SDS011;13211;51.796;5.808;2023-02-15T16:50:24;63.90;;;29.73;;
25263;SDS011;13211;51.796;5.808;2023-02-15T16:52:53;60.30;;;29.05;;
25263;SDS011;13211;51.796;5.808;2023-02-15T16:55:28;61.80;;;28.90;;
25263;SDS011;13211;51.796;5.808;2023-02-15T16:57:57;61.85;;;28.95;;
25263;SDS011;13211;51.796;5.808;2023-02-15T17:00:26;66.93;;;30.23;;
25263;SDS011;13211;51.796;5.808;2023-02-15T17:02:59;69.40;;;29.30;;
25263;SDS011;13211;51.796;5.808;2023-02-15T17:05:31;61.55;;;29.77;;
25263;SDS011;13211;51.796;5.808;2023-02-15T17:13:04;65.78;;;28.50;;
25263;SDS011;13211;51.796;5.808;2023-02-15T17:15:38;70.20;;;30.55;;
25263;SDS011;13211;51.796;5.808;2023-02-15T17:18:43;60.97;;;29.65;;
25263;SDS011;13211;51.796;5.808;2023-02-15T17:21:10;66.18;;;29.77;;
25263;SDS011;13211;51.796;5.808;2023-02-15T17:23:42;69.53;;;30.13;;
25263;SDS011;13211;51.796;5.808;2023-02-15T17:26:11;65.55;;;29.58;;
25263;SDS011;13211;51.796;5.808;2023-02-15T17:28:45;73.80;;;29.67;;
25263;SDS011;13211;51.796;5.808;2023-02-15T17:31:14;65.57;;;29.33;;
25263;SDS011;13211;51.796;5.808;2023-02-15T17:33:44;73.97;;;31.07;;
25263;SDS011;13211;51.796;5.808;2023-02-15T17:36:13;66.03;;;29.33;;
25263;SDS011;13211;51.796;5.808;2023-02-15T17:41:28;69.53;;;30.02;;
25263;SDS011;13211;51.796;5.808;2023-02-15T17:43:57;67.43;;;29.42;;
25263;SDS011;13211;51.796;5.808;2023-02-15T17:46:25;64.60;;;29.55;;
25263;SDS011;13211;51.796;5.808;2023-02-15T17:48:54;66.38;;;29.50;;
25263;SDS011;13211;51.796;5.808;2023-02-15T17:51:22;64.38;;;31.08;;
25263;SDS011;13211;51.796;5.808;2023-02-15T17:53:50;67.18;;;30.45;;
25263;SDS011;13211;51.796;5.808;2023-02-15T17:56:37;61.55;;;29.27;;
25263;SDS011;13211;51.796;5.808;2023-02-15T17:59:06;68.57;;;30.80;;
25263;SDS011;13211;51.796;5.808;2023-02-15T18:01:35;65.38;;;30.08;;
25263;SDS011;13211;51.796;5.808;2023-02-15T18:04:22;61.67;;;29.50;;
25263;SDS011;13211;51.796;5.808;2023-02-15T18:07:09;66.03;;;29.27;;
25263;SDS011;13211;51.796;5.808;2023-02-15T18:09:57;58.65;;;28.77;;
25263;SDS011;13211;51.796;5.808;2023-02-15T18:12:44;64.18;;;28.30;;
25263;SDS011;13211;51.796;5.808;2023-02-15T18:15:12;67.82;;;29.52;;
25263;SDS011;13211;51.796;5.808;2023-02-15T18:17:44;64.53;;;29.08;;
25263;SDS011;13211;51.796;5.808;2023-02-15T18:20:17;65.45;;;28.58;;
25263;SDS011;13211;51.796;5.808;2023-02-15T18:22:45;66.47;;;29.45;;
25263;SDS011;13211;51.796;5.808;2023-02-15T18:25:14;71.00;;;31.88;;
25263;SDS011;13211;51.796;5.808;2023-02-15T18:27:42;60.95;;;29.50;;